createdAt,value
2024-04-13T00:01:35.992Z,8.63
2024-04-13T00:05:40.035Z,8.20
2024-04-13T00:09:41.368Z,9.40
2024-04-13T00:13:52.125Z,10.25
2024-04-13T00:17:59.563Z,9.20
2024-04-13T00:22:09.223Z,11.68
2024-04-13T00:26:10.612Z,10.38
2024-04-13T00:30:13.456Z,11.93
2024-04-13T00:34:16.862Z,10.20
2024-04-13T00:38:17.874Z,9.48
2024-04-13T00:42:23.221Z,10.45
2024-04-13T00:46:26.428Z,11.65
2024-04-13T00:50:32.366Z,11.63
2024-04-13T00:54:39.646Z,11.15
2024-04-13T00:58:41.912Z,10.82
2024-04-13T01:02:45.719Z,11.68
2024-04-13T01:06:50.261Z,10.85
2024-04-13T01:10:51.694Z,9.80
2024-04-13T01:14:54.344Z,10.90
2024-04-13T01:18:55.693Z,11.15
2024-04-13T01:23:00.541Z,9.93
2024-04-13T01:27:05.245Z,9.23
2024-04-13T01:31:09.261Z,8.75
2024-04-13T01:35:14.345Z,10.45
2024-04-13T01:39:16.222Z,8.30
2024-04-13T01:43:21.952Z,9.32
2024-04-13T01:47:22.270Z,10.20
2024-04-13T01:51:24.530Z,9.23
2024-04-13T01:55:28.147Z,10.38
2024-04-13T01:59:33.735Z,9.90
2024-04-13T02:03:35.241Z,9.75
2024-04-13T02:07:47.821Z,9.75
2024-04-13T02:11:52.748Z,8.73
2024-04-13T02:16:07.257Z,7.50
2024-04-13T02:20:06.534Z,10.68
2024-04-13T02:24:12.244Z,9.90
2024-04-13T02:28:16.822Z,10.70
2024-04-13T02:32:20.663Z,10.45
2024-04-13T02:36:22.267Z,10.65
2024-04-13T02:40:24.930Z,8.90
2024-04-13T02:44:29.200Z,9.13
2024-04-13T02:48:32.927Z,8.40
2024-04-13T02:52:39.931Z,7.53
2024-04-13T02:56:40.876Z,8.00
2024-04-13T03:00:44.856Z,6.95
2024-04-13T03:04:48.193Z,9.05
2024-04-13T03:08:53.663Z,9.20
2024-04-13T03:13:00.329Z,8.63
2024-04-13T03:17:07.117Z,9.13
2024-04-13T03:21:11.000Z,8.18
2024-04-13T03:25:15.858Z,8.27
2024-04-13T03:29:22.406Z,6.93
2024-04-13T03:33:26.332Z,8.10
2024-04-13T03:37:37.541Z,7.95
2024-04-13T03:41:38.708Z,7.50
2024-04-13T03:45:42.336Z,8.52
2024-04-13T03:50:06.986Z,8.40
2024-04-13T03:54:13.410Z,7.55
2024-04-13T03:58:16.867Z,8.98
2024-04-13T04:02:19.148Z,8.15
2024-04-13T04:06:29.914Z,8.85
2024-04-13T04:10:35.628Z,8.80
2024-04-13T04:14:43.269Z,8.30
2024-04-13T04:18:47.104Z,7.90
2024-04-13T04:23:33.847Z,9.15
2024-04-13T04:33:47.380Z,10.98
2024-04-13T04:43:24.699Z,10.43
2024-04-13T04:48:10.467Z,8.00
2024-04-13T04:53:10.229Z,8.55
2024-04-13T04:57:35.558Z,10.30
2024-04-13T05:01:54.845Z,9.73
2024-04-13T05:06:41.002Z,9.75
2024-04-13T05:10:54.538Z,11.00
2024-04-13T05:16:46.195Z,10.38
2024-04-13T13:19:17.411Z,4.85
2024-04-13T14:11:55.868Z,4.47
2024-04-13T14:16:29.994Z,4.65
2024-04-13T14:25:42.520Z,5.07
2024-04-13T14:29:49.174Z,4.32
2024-04-13T14:33:57.106Z,4.32
2024-04-13T14:38:18.427Z,4.22
2024-04-13T14:42:34.315Z,4.32
2024-04-13T14:46:43.024Z,4.45
2024-04-13T14:50:58.372Z,4.97
2024-04-13T14:55:10.546Z,3.70
2024-04-13T14:59:13.116Z,4.05
2024-04-13T15:03:35.266Z,3.53
2024-04-13T15:08:09.074Z,4.07
2024-04-13T15:12:18.891Z,3.58
2024-04-13T15:16:30.091Z,3.45
2024-04-13T15:20:32.474Z,4.03
2024-04-13T15:24:56.963Z,4.68
2024-04-13T15:29:18.350Z,4.18
2024-04-13T15:33:35.525Z,3.50
2024-04-13T15:37:48.843Z,3.42
2024-04-13T15:42:12.523Z,4.18
2024-04-13T15:51:43.748Z,4.18
2024-04-13T16:02:29.000Z,4.05
